sensor_id;sensor_type;location;lat;lon;timestamp;temperature;humidity
14415;DHT22;7307;50.852;4.314;2022-10-16T00:01:12;19.90;68.30
14415;DHT22;7307;50.852;4.314;2022-10-16T00:03:42;19.90;68.20
14415;DHT22;7307;50.852;4.314;2022-10-16T00:06:08;19.90;68.20
14415;DHT22;7307;50.852;4.314;2022-10-16T00:08:34;19.90;68.20
14415;DHT22;7307;50.852;4.314;2022-10-16T00:11:11;19.90;68.20
14415;DHT22;7307;50.852;4.314;2022-10-16T00:13:40;19.90;68.20
14415;DHT22;7307;50.852;4.314;2022-10-16T00:16:06;19.90;68.20
14415;DHT22;7307;50.852;4.314;2022-10-16T00:18:32;19.90;68.20
14415;DHT22;7307;50.852;4.314;2022-10-16T00:21:06;19.90;68.10
14415;DHT22;7307;50.852;4.314;2022-10-16T00:23:32;19.90;68.10
14415;DHT22;7307;50.852;4.314;2022-10-16T00:26:00;19.90;68.20
14415;DHT22;7307;50.852;4.314;2022-10-16T00:28:26;19.90;68.20
14415;DHT22;7307;50.852;4.314;2022-10-16T00:30:52;19.90;68.00
14415;DHT22;7307;50.852;4.314;2022-10-16T00:33:17;19.90;68.00
14415;DHT22;7307;50.852;4.314;2022-10-16T00:35:43;19.90;68.00
14415;DHT22;7307;50.852;4.314;2022-10-16T00:38:09;19.90;68.00
14415;DHT22;7307;50.852;4.314;2022-10-16T00:40:35;19.90;68.00
14415;DHT22;7307;50.852;4.314;2022-10-16T00:43:00;19.90;68.00
14415;DHT22;7307;50.852;4.314;2022-10-16T00:45:26;19.90;68.00
14415;DHT22;7307;50.852;4.314;2022-10-16T00:47:52;19.90;68.00
14415;DHT22;7307;50.852;4.314;2022-10-16T00:50:37;19.90;68.00
14415;DHT22;7307;50.852;4.314;2022-10-16T00:53:03;19.90;67.90
14415;DHT22;7307;50.852;4.314;2022-10-16T00:55:28;19.90;67.90
14415;DHT22;7307;50.852;4.314;2022-10-16T00:57:56;19.90;67.90
14415;DHT22;7307;50.852;4.314;2022-10-16T01:00:24;19.90;67.80
14415;DHT22;7307;50.852;4.314;2022-10-16T01:02:57;19.90;67.80
14415;DHT22;7307;50.852;4.314;2022-10-16T01:05:28;19.90;67.90
14415;DHT22;7307;50.852;4.314;2022-10-16T01:08:15;19.90;67.80
14415;DHT22;7307;50.852;4.314;2022-10-16T01:10:54;19.90;67.90
14415;DHT22;7307;50.852;4.314;2022-10-16T01:13:33;19.90;67.80
14415;DHT22;7307;50.852;4.314;2022-10-16T01:16:07;19.90;67.90
14415;DHT22;7307;50.852;4.314;2022-10-16T01:18:46;19.90;67.90
14415;DHT22;7307;50.852;4.314;2022-10-16T01:21:18;19.90;67.90
14415;DHT22;7307;50.852;4.314;2022-10-16T01:23:53;19.90;67.80
14415;DHT22;7307;50.852;4.314;2022-10-16T01:29:22;19.90;67.80
14415;DHT22;7307;50.852;4.314;2022-10-16T01:31:56;19.90;67.80
14415;DHT22;7307;50.852;4.314;2022-10-16T01:34:32;19.90;67.80
14415;DHT22;7307;50.852;4.314;2022-10-16T01:37:12;19.90;67.80
14415;DHT22;7307;50.852;4.314;2022-10-16T01:39:42;19.90;67.80
14415;DHT22;7307;50.852;4.314;2022-10-16T01:42:26;19.90;67.80
14415;DHT22;7307;50.852;4.314;2022-10-16T01:44:53;19.90;67.90
14415;DHT22;7307;50.852;4.314;2022-10-16T01:47:22;19.90;67.90
14415;DHT22;7307;50.852;4.314;2022-10-16T01:49:49;19.90;67.90
14415;DHT22;7307;50.852;4.314;2022-10-16T01:52:24;19.90;67.90
14415;DHT22;7307;50.852;4.314;2022-10-16T01:54:53;19.90;67.80
14415;DHT22;7307;50.852;4.314;2022-10-16T01:57:20;19.90;67.90
14415;DHT22;7307;50.852;4.314;2022-10-16T01:59:49;19.90;67.90
14415;DHT22;7307;50.852;4.314;2022-10-16T02:02:17;19.90;67.90
14415;DHT22;7307;50.852;4.314;2022-10-16T02:04:55;19.90;67.90
14415;DHT22;7307;50.852;4.314;2022-10-16T02:07:23;19.90;67.90
14415;DHT22;7307;50.852;4.314;2022-10-16T02:09:49;19.90;67.80
14415;DHT22;7307;50.852;4.314;2022-10-16T02:12:35;19.90;67.80
14415;DHT22;7307;50.852;4.314;2022-10-16T02:15:05;19.90;67.80
14415;DHT22;7307;50.852;4.314;2022-10-16T02:17:31;19.90;67.80
14415;DHT22;7307;50.852;4.314;2022-10-16T02:19:58;19.90;67.80
14415;DHT22;7307;50.852;4.314;2022-10-16T02:22:29;19.90;67.80
14415;DHT22;7307;50.852;4.314;2022-10-16T02:28:01;19.90;67.70
14415;DHT22;7307;50.852;4.314;2022-10-16T02:30:45;19.90;67.70
14415;DHT22;7307;50.852;4.314;2022-10-16T02:33:14;19.90;67.70
14415;DHT22;7307;50.852;4.314;2022-10-16T02:35:42;19.90;67.60
14415;DHT22;7307;50.852;4.314;2022-10-16T02:38:09;19.90;67.60
14415;DHT22;7307;50.852;4.314;2022-10-16T02:40:36;19.90;67.70
14415;DHT22;7307;50.852;4.314;2022-10-16T02:43:04;19.90;67.80
14415;DHT22;7307;50.852;4.314;2022-10-16T02:45:30;19.90;67.80
14415;DHT22;7307;50.852;4.314;2022-10-16T02:47:55;19.90;67.80
14415;DHT22;7307;50.852;4.314;2022-10-16T02:50:21;19.90;67.80
14415;DHT22;7307;50.852;4.314;2022-10-16T02:52:47;19.90;67.80
14415;DHT22;7307;50.852;4.314;2022-10-16T02:55:13;19.90;67.70
14415;DHT22;7307;50.852;4.314;2022-10-16T02:57:38;19.90;67.80
14415;DHT22;7307;50.852;4.314;2022-10-16T03:00:06;19.90;67.70
14415;DHT22;7307;50.852;4.314;2022-10-16T03:02:32;19.90;67.60
14415;DHT22;7307;50.852;4.314;2022-10-16T03:04:58;19.90;67.70
14415;DHT22;7307;50.852;4.314;2022-10-16T03:07:23;19.90;67.70
14415;DHT22;7307;50.852;4.314;2022-10-16T03:09:49;19.90;67.60
14415;DHT22;7307;50.852;4.314;2022-10-16T03:12:15;19.90;67.60
14415;DHT22;7307;50.852;4.314;2022-10-16T03:14:40;19.90;67.60
14415;DHT22;7307;50.852;4.314;2022-10-16T03:17:06;19.90;67.60
14415;DHT22;7307;50.852;4.314;2022-10-16T03:19:31;19.90;67.60
14415;DHT22;7307;50.852;4.314;2022-10-16T03:21:57;19.90;67.60
14415;DHT22;7307;50.852;4.314;2022-10-16T03:24:23;19.90;67.60
14415;DHT22;7307;50.852;4.314;2022-10-16T03:26:48;19.90;67.60
14415;DHT22;7307;50.852;4.314;2022-10-16T03:29:14;19.90;67.60
14415;DHT22;7307;50.852;4.314;2022-10-16T03:31:39;19.90;67.60
14415;DHT22;7307;50.852;4.314;2022-10-16T03:34:05;19.90;67.60
14415;DHT22;7307;50.852;4.314;2022-10-16T03:36:31;19.90;67.60
14415;DHT22;7307;50.852;4.314;2022-10-16T03:38:56;19.90;67.60
14415;DHT22;7307;50.852;4.314;2022-10-16T03:41:22;19.90;67.60
14415;DHT22;7307;50.852;4.314;2022-10-16T03:43:47;19.90;67.60
14415;DHT22;7307;50.852;4.314;2022-10-16T03:46:13;19.90;67.60
14415;DHT22;7307;50.852;4.314;2022-10-16T03:48:39;19.90;67.60
14415;DHT22;7307;50.852;4.314;2022-10-16T03:51:05;19.90;67.60
14415;DHT22;7307;50.852;4.314;2022-10-16T03:53:31;19.90;67.60
14415;DHT22;7307;50.852;4.314;2022-10-16T03:55:56;19.90;67.60
14415;DHT22;7307;50.852;4.314;2022-10-16T03:58:22;19.90;67.60
14415;DHT22;7307;50.852;4.314;2022-10-16T04:00:47;19.90;67.60
14415;DHT22;7307;50.852;4.314;2022-10-16T04:03:14;19.90;67.60
14415;DHT22;7307;50.852;4.314;2022-10-16T04:05:39;19.90;67.50
14415;DHT22;7307;50.852;4.314;2022-10-16T04:08:06;19.90;67.50
14415;DHT22;7307;50.852;4.314;2022-10-16T04:10:32;19.90;67.50
14415;DHT22;7307;50.852;4.314;2022-10-16T04:12:57;19.80;67.50
14415;DHT22;7307;50.852;4.314;2022-10-16T04:15:23;19.90;67.50
14415;DHT22;7307;50.852;4.314;2022-10-16T04:17:49;19.80;67.50
14415;DHT22;7307;50.852;4.314;2022-10-16T04:20:15;19.80;67.50
14415;DHT22;7307;50.852;4.314;2022-10-16T04:22:40;19.90;67.60
14415;DHT22;7307;50.852;4.314;2022-10-16T04:25:06;19.80;67.50
14415;DHT22;7307;50.852;4.314;2022-10-16T04:27:32;19.80;67.50
14415;DHT22;7307;50.852;4.314;2022-10-16T04:29:59;19.90;67.50
14415;DHT22;7307;50.852;4.314;2022-10-16T04:32:25;19.80;67.50
14415;DHT22;7307;50.852;4.314;2022-10-16T04:34:51;19.90;67.50
14415;DHT22;7307;50.852;4.314;2022-10-16T04:37:16;19.80;67.50
14415;DHT22;7307;50.852;4.314;2022-10-16T04:39:42;19.80;67.60
14415;DHT22;7307;50.852;4.314;2022-10-16T04:42:07;19.80;67.50
14415;DHT22;7307;50.852;4.314;2022-10-16T04:44:33;19.80;67.50
14415;DHT22;7307;50.852;4.314;2022-10-16T04:46:58;19.80;67.50
14415;DHT22;7307;50.852;4.314;2022-10-16T04:49:24;19.80;67.60
14415;DHT22;7307;50.852;4.314;2022-10-16T04:51:50;19.80;67.60
14415;DHT22;7307;50.852;4.314;2022-10-16T04:54:15;19.80;67.50
14415;DHT22;7307;50.852;4.314;2022-10-16T04:56:41;19.80;67.50
14415;DHT22;7307;50.852;4.314;2022-10-16T04:59:13;19.80;67.50
14415;DHT22;7307;50.852;4.314;2022-10-16T05:01:39;19.80;67.50
14415;DHT22;7307;50.852;4.314;2022-10-16T05:04:04;19.80;67.50
14415;DHT22;7307;50.852;4.314;2022-10-16T05:06:30;19.80;67.50
14415;DHT22;7307;50.852;4.314;2022-10-16T05:08:55;19.80;67.50
14415;DHT22;7307;50.852;4.314;2022-10-16T05:11:21;19.80;67.40
14415;DHT22;7307;50.852;4.314;2022-10-16T05:13:46;19.80;67.40
14415;DHT22;7307;50.852;4.314;2022-10-16T05:16:12;19.80;67.40
14415;DHT22;7307;50.852;4.314;2022-10-16T05:18:37;19.80;67.40
14415;DHT22;7307;50.852;4.314;2022-10-16T05:21:03;19.80;67.40
14415;DHT22;7307;50.852;4.314;2022-10-16T05:23:29;19.80;67.40
14415;DHT22;7307;50.852;4.314;2022-10-16T05:25:56;19.80;67.50
14415;DHT22;7307;50.852;4.314;2022-10-16T05:28:24;19.80;67.40
14415;DHT22;7307;50.852;4.314;2022-10-16T05:30:50;19.80;67.40
14415;DHT22;7307;50.852;4.314;2022-10-16T05:33:16;19.80;67.50
14415;DHT22;7307;50.852;4.314;2022-10-16T05:35:41;19.80;67.40
14415;DHT22;7307;50.852;4.314;2022-10-16T05:38:07;19.80;67.30
14415;DHT22;7307;50.852;4.314;2022-10-16T05:40:33;19.80;67.40
14415;DHT22;7307;50.852;4.314;2022-10-16T05:42:58;19.80;67.30
14415;DHT22;7307;50.852;4.314;2022-10-16T05:45:24;19.80;67.40
14415;DHT22;7307;50.852;4.314;2022-10-16T05:47:49;19.80;67.50
14415;DHT22;7307;50.852;4.314;2022-10-16T05:50:15;19.80;67.50
14415;DHT22;7307;50.852;4.314;2022-10-16T05:52:41;19.80;67.50
14415;DHT22;7307;50.852;4.314;2022-10-16T05:55:06;19.80;67.40
14415;DHT22;7307;50.852;4.314;2022-10-16T05:57:32;19.80;67.50
14415;DHT22;7307;50.852;4.314;2022-10-16T05:59:58;19.80;67.50
14415;DHT22;7307;50.852;4.314;2022-10-16T06:02:23;19.80;67.40
14415;DHT22;7307;50.852;4.314;2022-10-16T06:04:49;19.80;67.50
14415;DHT22;7307;50.852;4.314;2022-10-16T06:07:16;19.80;67.40
14415;DHT22;7307;50.852;4.314;2022-10-16T06:09:42;19.80;67.40
14415;DHT22;7307;50.852;4.314;2022-10-16T06:12:07;19.80;67.40
14415;DHT22;7307;50.852;4.314;2022-10-16T06:14:33;19.80;67.40
14415;DHT22;7307;50.852;4.314;2022-10-16T06:16:58;19.80;67.40
14415;DHT22;7307;50.852;4.314;2022-10-16T06:19:24;19.80;67.30
14415;DHT22;7307;50.852;4.314;2022-10-16T06:21:49;19.80;67.30
14415;DHT22;7307;50.852;4.314;2022-10-16T06:24:15;19.80;67.30
14415;DHT22;7307;50.852;4.314;2022-10-16T06:26:41;19.80;67.30
14415;DHT22;7307;50.852;4.314;2022-10-16T06:29:06;19.80;67.30
14415;DHT22;7307;50.852;4.314;2022-10-16T06:31:32;19.80;67.30
14415;DHT22;7307;50.852;4.314;2022-10-16T06:33:59;19.80;67.30
14415;DHT22;7307;50.852;4.314;2022-10-16T06:36:25;19.80;67.30
14415;DHT22;7307;50.852;4.314;2022-10-16T06:38:51;19.80;67.30
14415;DHT22;7307;50.852;4.314;2022-10-16T06:41:19;19.80;67.20
14415;DHT22;7307;50.852;4.314;2022-10-16T06:43:45;19.80;68.10
14415;DHT22;7307;50.852;4.314;2022-10-16T06:46:12;19.80;67.30
14415;DHT22;7307;50.852;4.314;2022-10-16T06:48:39;19.80;67.30
14415;DHT22;7307;50.852;4.314;2022-10-16T06:53:32;19.80;67.30
14415;DHT22;7307;50.852;4.314;2022-10-16T06:56:13;19.80;67.30
14415;DHT22;7307;50.852;4.314;2022-10-16T06:58:39;19.80;67.30
14415;DHT22;7307;50.852;4.314;2022-10-16T07:01:05;19.80;67.30
14415;DHT22;7307;50.852;4.314;2022-10-16T07:03:31;19.80;67.40
14415;DHT22;7307;50.852;4.314;2022-10-16T07:05:57;19.80;67.40
14415;DHT22;7307;50.852;4.314;2022-10-16T07:08:26;19.70;67.30
14415;DHT22;7307;50.852;4.314;2022-10-16T07:10:59;19.80;67.40
14415;DHT22;7307;50.852;4.314;2022-10-16T07:13:25;19.70;68.10
14415;DHT22;7307;50.852;4.314;2022-10-16T07:15:50;19.80;67.50
14415;DHT22;7307;50.852;4.314;2022-10-16T07:18:16;19.70;67.30
14415;DHT22;7307;50.852;4.314;2022-10-16T07:20:41;19.70;67.40
14415;DHT22;7307;50.852;4.314;2022-10-16T07:23:07;19.70;67.40
14415;DHT22;7307;50.852;4.314;2022-10-16T07:25:32;19.70;67.30
14415;DHT22;7307;50.852;4.314;2022-10-16T07:27:58;19.70;67.30
14415;DHT22;7307;50.852;4.314;2022-10-16T07:30:23;19.70;67.40
14415;DHT22;7307;50.852;4.314;2022-10-16T07:32:49;19.70;67.30
14415;DHT22;7307;50.852;4.314;2022-10-16T07:35:15;19.70;67.30
14415;DHT22;7307;50.852;4.314;2022-10-16T07:37:44;19.70;67.40
14415;DHT22;7307;50.852;4.314;2022-10-16T07:40:10;19.70;67.40
14415;DHT22;7307;50.852;4.314;2022-10-16T07:42:35;19.70;67.50
14415;DHT22;7307;50.852;4.314;2022-10-16T07:45:01;19.70;67.40
14415;DHT22;7307;50.852;4.314;2022-10-16T07:47:27;19.70;67.50
14415;DHT22;7307;50.852;4.314;2022-10-16T07:49:52;19.70;67.50
14415;DHT22;7307;50.852;4.314;2022-10-16T07:52:18;19.70;67.50
14415;DHT22;7307;50.852;4.314;2022-10-16T07:54:43;19.70;68.20
14415;DHT22;7307;50.852;4.314;2022-10-16T07:57:09;19.70;68.10
14415;DHT22;7307;50.852;4.314;2022-10-16T07:59:34;19.70;67.90
14415;DHT22;7307;50.852;4.314;2022-10-16T08:02:00;19.70;67.70
14415;DHT22;7307;50.852;4.314;2022-10-16T08:04:26;19.70;67.70
14415;DHT22;7307;50.852;4.314;2022-10-16T08:06:51;19.80;68.00
14415;DHT22;7307;50.852;4.314;2022-10-16T08:09:17;19.80;67.90
14415;DHT22;7307;50.852;4.314;2022-10-16T08:11:42;19.80;67.80
14415;DHT22;7307;50.852;4.314;2022-10-16T08:14:08;19.80;67.80
14415;DHT22;7307;50.852;4.314;2022-10-16T08:16:33;19.80;67.80
14415;DHT22;7307;50.852;4.314;2022-10-16T08:18:59;19.80;68.20
14415;DHT22;7307;50.852;4.314;2022-10-16T08:21:24;19.80;68.30
14415;DHT22;7307;50.852;4.314;2022-10-16T08:23:52;19.80;68.20
14415;DHT22;7307;50.852;4.314;2022-10-16T08:26:18;19.80;68.10
14415;DHT22;7307;50.852;4.314;2022-10-16T08:28:44;19.80;68.00
14415;DHT22;7307;50.852;4.314;2022-10-16T08:31:15;19.80;68.00
14415;DHT22;7307;50.852;4.314;2022-10-16T08:33:43;19.80;68.00
14415;DHT22;7307;50.852;4.314;2022-10-16T08:36:10;19.80;68.10
14415;DHT22;7307;50.852;4.314;2022-10-16T08:38:36;19.80;68.20
14415;DHT22;7307;50.852;4.314;2022-10-16T08:49:26;19.80;68.80
14415;DHT22;7307;50.852;4.314;2022-10-16T08:51:52;19.80;68.80
14415;DHT22;7307;50.852;4.314;2022-10-16T08:54:29;19.80;68.80
14415;DHT22;7307;50.852;4.314;2022-10-16T08:56:57;19.80;68.90
14415;DHT22;7307;50.852;4.314;2022-10-16T08:59:26;19.80;68.70
14415;DHT22;7307;50.852;4.314;2022-10-16T09:01:52;19.80;68.60
14415;DHT22;7307;50.852;4.314;2022-10-16T09:07:02;19.80;68.60
14415;DHT22;7307;50.852;4.314;2022-10-16T09:09:43;19.80;68.50
14415;DHT22;7307;50.852;4.314;2022-10-16T09:12:16;19.80;68.50
14415;DHT22;7307;50.852;4.314;2022-10-16T09:15:29;19.80;68.50
14415;DHT22;7307;50.852;4.314;2022-10-16T09:18:12;19.80;68.50
14415;DHT22;7307;50.852;4.314;2022-10-16T09:23:37;19.70;68.30
14415;DHT22;7307;50.852;4.314;2022-10-16T09:26:05;19.70;68.40
14415;DHT22;7307;50.852;4.314;2022-10-16T09:28:30;19.70;68.40
14415;DHT22;7307;50.852;4.314;2022-10-16T09:30:56;19.70;68.30
14415;DHT22;7307;50.852;4.314;2022-10-16T09:33:25;19.70;68.30
14415;DHT22;7307;50.852;4.314;2022-10-16T09:35:55;19.70;68.30
14415;DHT22;7307;50.852;4.314;2022-10-16T09:38:42;19.70;68.20
14415;DHT22;7307;50.852;4.314;2022-10-16T09:41:21;19.70;68.20
14415;DHT22;7307;50.852;4.314;2022-10-16T09:43:56;19.70;68.20
14415;DHT22;7307;50.852;4.314;2022-10-16T09:46:29;19.70;68.20
14415;DHT22;7307;50.852;4.314;2022-10-16T09:49:16;19.70;68.20
14415;DHT22;7307;50.852;4.314;2022-10-16T09:51:43;19.70;68.20
14415;DHT22;7307;50.852;4.314;2022-10-16T09:56:36;19.70;68.10
14415;DHT22;7307;50.852;4.314;2022-10-16T09:59:18;19.70;68.20
14415;DHT22;7307;50.852;4.314;2022-10-16T10:01:47;19.70;68.20
14415;DHT22;7307;50.852;4.314;2022-10-16T10:04:13;19.70;68.00
14415;DHT22;7307;50.852;4.314;2022-10-16T10:06:56;19.70;68.20
14415;DHT22;7307;50.852;4.314;2022-10-16T10:09:23;19.70;68.20
14415;DHT22;7307;50.852;4.314;2022-10-16T10:11:58;19.70;68.00
14415;DHT22;7307;50.852;4.314;2022-10-16T10:16:52;19.70;68.10
14415;DHT22;7307;50.852;4.314;2022-10-16T10:19:22;19.70;68.00
14415;DHT22;7307;50.852;4.314;2022-10-16T10:21:52;19.70;68.20
14415;DHT22;7307;50.852;4.314;2022-10-16T10:24:19;19.70;68.20
14415;DHT22;7307;50.852;4.314;2022-10-16T10:27:00;19.70;68.20
14415;DHT22;7307;50.852;4.314;2022-10-16T10:32:26;19.80;68.20
14415;DHT22;7307;50.852;4.314;2022-10-16T10:38:39;19.80;68.00
14415;DHT22;7307;50.852;4.314;2022-10-16T10:46:41;19.80;67.80
14415;DHT22;7307;50.852;4.314;2022-10-16T10:57:55;19.90;67.80
14415;DHT22;7307;50.852;4.314;2022-10-16T11:05:45;20.00;67.70
14415;DHT22;7307;50.852;4.314;2022-10-16T11:08:22;20.00;67.50
14415;DHT22;7307;50.852;4.314;2022-10-16T11:11:02;20.00;67.30
14415;DHT22;7307;50.852;4.314;2022-10-16T11:19:01;20.10;66.60
14415;DHT22;7307;50.852;4.314;2022-10-16T11:21:39;20.10;66.40
14415;DHT22;7307;50.852;4.314;2022-10-16T11:24:16;20.10;66.20
14415;DHT22;7307;50.852;4.314;2022-10-16T11:26:50;20.20;66.00
14415;DHT22;7307;50.852;4.314;2022-10-16T11:29:26;20.20;65.70
14415;DHT22;7307;50.852;4.314;2022-10-16T11:31:59;20.20;65.50
14415;DHT22;7307;50.852;4.314;2022-10-16T11:34:31;20.30;65.30
14415;DHT22;7307;50.852;4.314;2022-10-16T11:37:05;20.30;65.10
14415;DHT22;7307;50.852;4.314;2022-10-16T11:39:34;20.30;65.00
14415;DHT22;7307;50.852;4.314;2022-10-16T11:47:47;20.30;64.10
14415;DHT22;7307;50.852;4.314;2022-10-16T11:55:43;20.40;63.20
14415;DHT22;7307;50.852;4.314;2022-10-16T12:01:37;20.40;62.80
14415;DHT22;7307;50.852;4.314;2022-10-16T12:04:19;20.40;62.50
14415;DHT22;7307;50.852;4.314;2022-10-16T12:09:26;20.40;62.30
14415;DHT22;7307;50.852;4.314;2022-10-16T12:11:55;20.40;62.40
14415;DHT22;7307;50.852;4.314;2022-10-16T12:15:17;20.40;62.50
14415;DHT22;7307;50.852;4.314;2022-10-16T12:18:25;20.40;62.60
14415;DHT22;7307;50.852;4.314;2022-10-16T12:21:00;20.40;62.80
14415;DHT22;7307;50.852;4.314;2022-10-16T12:23:32;20.40;62.80
14415;DHT22;7307;50.852;4.314;2022-10-16T12:25:59;20.40;63.00
14415;DHT22;7307;50.852;4.314;2022-10-16T12:28:29;20.40;63.00
14415;DHT22;7307;50.852;4.314;2022-10-16T12:30:58;20.40;63.00
14415;DHT22;7307;50.852;4.314;2022-10-16T12:33:41;20.40;63.00
14415;DHT22;7307;50.852;4.314;2022-10-16T12:36:26;20.30;62.90
14415;DHT22;7307;50.852;4.314;2022-10-16T12:38:53;20.40;62.90
14415;DHT22;7307;50.852;4.314;2022-10-16T12:41:31;20.30;62.70
14415;DHT22;7307;50.852;4.314;2022-10-16T12:43:57;20.30;62.60
14415;DHT22;7307;50.852;4.314;2022-10-16T12:51:40;20.30;62.60
14415;DHT22;7307;50.852;4.314;2022-10-16T12:54:27;20.30;62.60
14415;DHT22;7307;50.852;4.314;2022-10-16T13:05:20;20.30;63.00
14415;DHT22;7307;50.852;4.314;2022-10-16T13:30:01;20.30;64.40
14415;DHT22;7307;50.852;4.314;2022-10-16T13:32:27;20.30;64.40
14415;DHT22;7307;50.852;4.314;2022-10-16T13:34:53;20.20;64.30
14415;DHT22;7307;50.852;4.314;2022-10-16T13:37:21;20.20;64.30
14415;DHT22;7307;50.852;4.314;2022-10-16T13:39:48;20.20;64.70
14415;DHT22;7307;50.852;4.314;2022-10-16T13:42:20;20.20;63.70
14415;DHT22;7307;50.852;4.314;2022-10-16T13:44:52;20.20;63.70
14415;DHT22;7307;50.852;4.314;2022-10-16T13:47:27;20.20;64.10
14415;DHT22;7307;50.852;4.314;2022-10-16T13:50:10;20.20;64.00
14415;DHT22;7307;50.852;4.314;2022-10-16T13:52:37;20.20;63.90
14415;DHT22;7307;50.852;4.314;2022-10-16T13:55:13;20.20;63.80
14415;DHT22;7307;50.852;4.314;2022-10-16T13:57:40;20.20;63.90
14415;DHT22;7307;50.852;4.314;2022-10-16T14:00:23;20.20;63.90
14415;DHT22;7307;50.852;4.314;2022-10-16T14:03:01;20.20;63.90
14415;DHT22;7307;50.852;4.314;2022-10-16T14:05:27;20.20;64.00
14415;DHT22;7307;50.852;4.314;2022-10-16T14:07:53;20.20;64.00
14415;DHT22;7307;50.852;4.314;2022-10-16T14:10:30;20.20;64.00
14415;DHT22;7307;50.852;4.314;2022-10-16T14:12:58;20.20;64.00
14415;DHT22;7307;50.852;4.314;2022-10-16T14:15:24;20.20;64.20
14415;DHT22;7307;50.852;4.314;2022-10-16T14:17:52;20.20;64.10
14415;DHT22;7307;50.852;4.314;2022-10-16T14:20:20;20.20;64.10
14415;DHT22;7307;50.852;4.314;2022-10-16T14:22:46;20.20;64.20
14415;DHT22;7307;50.852;4.314;2022-10-16T14:28:19;20.20;64.30
14415;DHT22;7307;50.852;4.314;2022-10-16T14:36:14;20.10;64.30
14415;DHT22;7307;50.852;4.314;2022-10-16T14:38:48;20.10;64.30
14415;DHT22;7307;50.852;4.314;2022-10-16T14:41:15;20.10;64.30
14415;DHT22;7307;50.852;4.314;2022-10-16T14:43:42;20.10;64.20
14415;DHT22;7307;50.852;4.314;2022-10-16T14:46:22;20.10;64.30
14415;DHT22;7307;50.852;4.314;2022-10-16T14:48:58;20.10;64.40
14415;DHT22;7307;50.852;4.314;2022-10-16T14:51:25;20.10;64.30
14415;DHT22;7307;50.852;4.314;2022-10-16T14:53:51;20.10;64.30
14415;DHT22;7307;50.852;4.314;2022-10-16T14:56:19;20.10;64.20
14415;DHT22;7307;50.852;4.314;2022-10-16T14:58:46;20.10;64.50
14415;DHT22;7307;50.852;4.314;2022-10-16T15:01:12;20.10;65.40
14415;DHT22;7307;50.852;4.314;2022-10-16T15:03:38;20.10;65.50
14415;DHT22;7307;50.852;4.314;2022-10-16T15:06:13;20.10;66.30
14415;DHT22;7307;50.852;4.314;2022-10-16T15:08:39;20.10;65.80
14415;DHT22;7307;50.852;4.314;2022-10-16T15:11:18;20.10;65.60
14415;DHT22;7307;50.852;4.314;2022-10-16T15:13:45;20.20;65.40
14415;DHT22;7307;50.852;4.314;2022-10-16T15:16:12;20.10;65.30
14415;DHT22;7307;50.852;4.314;2022-10-16T15:18:38;20.10;65.40
14415;DHT22;7307;50.852;4.314;2022-10-16T15:21:03;20.10;65.50
14415;DHT22;7307;50.852;4.314;2022-10-16T15:23:29;20.10;65.20
14415;DHT22;7307;50.852;4.314;2022-10-16T15:25:55;20.20;65.10
14415;DHT22;7307;50.852;4.314;2022-10-16T15:28:23;20.10;65.10
14415;DHT22;7307;50.852;4.314;2022-10-16T15:30:51;20.20;65.30
14415;DHT22;7307;50.852;4.314;2022-10-16T15:33:22;20.20;65.40
14415;DHT22;7307;50.852;4.314;2022-10-16T15:35:52;20.20;65.30
14415;DHT22;7307;50.852;4.314;2022-10-16T15:38:19;20.20;65.30
14415;DHT22;7307;50.852;4.314;2022-10-16T15:40:46;20.20;65.00
14415;DHT22;7307;50.852;4.314;2022-10-16T15:43:12;20.20;65.10
14415;DHT22;7307;50.852;4.314;2022-10-16T15:45:38;20.20;65.20
14415;DHT22;7307;50.852;4.314;2022-10-16T15:48:04;20.20;66.10
14415;DHT22;7307;50.852;4.314;2022-10-16T15:50:30;20.20;65.20
14415;DHT22;7307;50.852;4.314;2022-10-16T15:52:56;20.20;64.90
14415;DHT22;7307;50.852;4.314;2022-10-16T15:55:22;20.20;64.80
14415;DHT22;7307;50.852;4.314;2022-10-16T15:57:48;20.20;64.90
14415;DHT22;7307;50.852;4.314;2022-10-16T16:00:16;20.20;64.80
14415;DHT22;7307;50.852;4.314;2022-10-16T16:02:43;20.20;64.80
14415;DHT22;7307;50.852;4.314;2022-10-16T16:05:10;20.20;64.80
14415;DHT22;7307;50.852;4.314;2022-10-16T16:07:37;20.20;64.70
14415;DHT22;7307;50.852;4.314;2022-10-16T16:10:05;20.30;64.80
14415;DHT22;7307;50.852;4.314;2022-10-16T16:12:32;20.20;64.60
14415;DHT22;7307;50.852;4.314;2022-10-16T16:14:58;20.20;64.60
14415;DHT22;7307;50.852;4.314;2022-10-16T16:17:24;20.30;64.80
14415;DHT22;7307;50.852;4.314;2022-10-16T16:19:50;20.20;64.70
14415;DHT22;7307;50.852;4.314;2022-10-16T16:22:16;20.30;65.00
14415;DHT22;7307;50.852;4.314;2022-10-16T16:24:41;20.30;66.00
14415;DHT22;7307;50.852;4.314;2022-10-16T16:27:09;20.30;65.00
14415;DHT22;7307;50.852;4.314;2022-10-16T16:29:35;20.30;65.10
14415;DHT22;7307;50.852;4.314;2022-10-16T16:32:00;20.30;65.00
14415;DHT22;7307;50.852;4.314;2022-10-16T16:34:27;20.30;65.00
14415;DHT22;7307;50.852;4.314;2022-10-16T16:36:54;20.30;64.90
14415;DHT22;7307;50.852;4.314;2022-10-16T16:39:19;20.30;65.00
14415;DHT22;7307;50.852;4.314;2022-10-16T16:41:45;20.30;65.00
14415;DHT22;7307;50.852;4.314;2022-10-16T16:44:12;20.30;65.00
14415;DHT22;7307;50.852;4.314;2022-10-16T16:46:37;20.20;64.90
14415;DHT22;7307;50.852;4.314;2022-10-16T16:49:05;20.20;65.00
14415;DHT22;7307;50.852;4.314;2022-10-16T16:51:31;20.20;64.80
14415;DHT22;7307;50.852;4.314;2022-10-16T16:53:57;20.20;65.00
14415;DHT22;7307;50.852;4.314;2022-10-16T16:56:24;20.20;64.80
14415;DHT22;7307;50.852;4.314;2022-10-16T16:58:51;20.20;64.80
14415;DHT22;7307;50.852;4.314;2022-10-16T17:01:18;20.20;64.90
14415;DHT22;7307;50.852;4.314;2022-10-16T17:03:44;20.20;65.00
14415;DHT22;7307;50.852;4.314;2022-10-16T17:06:11;20.20;65.00
14415;DHT22;7307;50.852;4.314;2022-10-16T17:08:38;20.20;65.00
14415;DHT22;7307;50.852;4.314;2022-10-16T17:11:04;20.20;65.00
14415;DHT22;7307;50.852;4.314;2022-10-16T17:13:32;20.20;65.70
14415;DHT22;7307;50.852;4.314;2022-10-16T17:16:03;20.20;65.00
14415;DHT22;7307;50.852;4.314;2022-10-16T17:18:30;20.20;65.10
14415;DHT22;7307;50.852;4.314;2022-10-16T17:20:59;20.20;65.00
14415;DHT22;7307;50.852;4.314;2022-10-16T17:23:25;20.20;65.10
14415;DHT22;7307;50.852;4.314;2022-10-16T17:25:51;20.20;65.10
14415;DHT22;7307;50.852;4.314;2022-10-16T17:28:17;20.20;65.20
14415;DHT22;7307;50.852;4.314;2022-10-16T17:30:43;20.20;65.10
14415;DHT22;7307;50.852;4.314;2022-10-16T17:33:10;20.20;65.10
14415;DHT22;7307;50.852;4.314;2022-10-16T17:35:37;20.20;65.20
14415;DHT22;7307;50.852;4.314;2022-10-16T17:38:04;20.20;65.20
14415;DHT22;7307;50.852;4.314;2022-10-16T17:40:29;20.20;65.30
14415;DHT22;7307;50.852;4.314;2022-10-16T17:42:55;20.20;65.30
14415;DHT22;7307;50.852;4.314;2022-10-16T17:45:20;20.20;65.30
14415;DHT22;7307;50.852;4.314;2022-10-16T17:47:46;20.20;65.30
14415;DHT22;7307;50.852;4.314;2022-10-16T17:50:11;20.20;65.30
14415;DHT22;7307;50.852;4.314;2022-10-16T17:52:37;20.20;65.40
14415;DHT22;7307;50.852;4.314;2022-10-16T17:55:03;20.20;65.40